createdAt,value
2019-06-07T00:02:06.415Z,1.80
2019-06-07T00:04:38.483Z,1.98
2019-06-07T00:07:12.581Z,1.82
2019-06-07T00:09:44.459Z,1.80
2019-06-07T00:12:17.604Z,3.58
2019-06-07T00:14:50.239Z,2.47
2019-06-07T00:17:22.676Z,2.55
2019-06-07T00:19:54.685Z,3.02
2019-06-07T00:22:33.114Z,2.42
2019-06-07T00:25:00.884Z,2.42
2019-06-07T00:27:32.940Z,2.87
2019-06-07T00:30:32.765Z,2.72
2019-06-07T00:32:40.765Z,3.17
2019-06-07T00:35:15.450Z,3.98
2019-06-07T00:37:46.642Z,8.70
2019-06-07T00:40:29.977Z,16.62
2019-06-07T00:42:52.416Z,4.47
2019-06-07T00:45:24.897Z,3.30
2019-06-07T00:47:56.989Z,3.12
2019-06-07T00:50:29.233Z,2.58
2019-06-07T00:53:21.625Z,2.37
2019-06-07T00:55:35.566Z,2.62
2019-06-07T00:58:07.587Z,2.87
2019-06-07T01:00:39.545Z,2.52
2019-06-07T01:03:12.712Z,2.75
2019-06-07T01:05:45.527Z,2.58
2019-06-07T01:08:21.516Z,2.72
2019-06-07T01:10:53.935Z,2.75
2019-06-07T01:13:26.970Z,2.77
2019-06-07T01:15:59.025Z,2.80
2019-06-07T01:18:39.049Z,3.17
2019-06-07T01:21:05.207Z,2.90
2019-06-07T01:26:11.028Z,2.58
2019-06-07T01:28:43.328Z,2.45
2019-06-07T01:31:17.715Z,2.75
2019-06-07T01:33:51.156Z,2.65
2019-06-07T01:36:25.243Z,2.83
2019-06-07T01:38:56.756Z,3.12
2019-06-07T01:41:30.677Z,2.98
2019-06-07T01:44:02.633Z,3.00
2019-06-07T01:46:35.004Z,3.55
2019-06-07T01:49:07.235Z,3.10
2019-06-07T01:51:39.441Z,3.20
2019-06-07T01:54:49.664Z,2.85
2019-06-07T01:56:46.861Z,3.05
2019-06-07T01:59:21.974Z,2.70
2019-06-07T02:01:52.540Z,2.52
2019-06-07T02:04:27.343Z,2.80
2019-06-07T02:06:58.059Z,3.27
2019-06-07T02:09:32.018Z,2.83
2019-06-07T02:12:24.771Z,2.60
2019-06-07T02:14:37.587Z,4.27
2019-06-07T02:17:09.860Z,3.17
2019-06-07T02:19:41.822Z,2.62
2019-06-07T02:22:14.229Z,2.52
2019-06-07T02:24:46.682Z,2.95
2019-06-07T02:27:20.458Z,2.92
2019-06-07T02:29:52.663Z,2.67
2019-06-07T02:32:29.818Z,3.27
2019-06-07T02:34:59.051Z,3.00
2019-06-07T02:37:34.109Z,2.85
2019-06-07T02:40:08.018Z,2.72
2019-06-07T02:42:42.595Z,3.08
2019-06-07T02:45:13.681Z,2.87
2019-06-07T02:47:47.197Z,3.22
2019-06-07T02:50:19.303Z,3.00
2019-06-07T02:52:51.136Z,2.90
2019-06-07T02:55:27.382Z,3.50
2019-06-07T02:57:56.273Z,3.05
2019-06-07T03:01:08.959Z,3.15
2019-06-07T03:03:22.700Z,3.22
2019-06-07T03:05:54.704Z,3.47
2019-06-07T03:08:28.259Z,3.85
2019-06-07T03:11:00.078Z,3.75
2019-06-07T03:13:37.746Z,4.10
2019-06-07T03:16:12.399Z,3.85
2019-06-07T03:18:58.289Z,4.10
2019-06-07T03:21:33.718Z,5.08
2019-06-07T03:27:30.352Z,5.47
2019-06-07T03:29:10.051Z,5.97
2019-06-07T03:31:47.778Z,6.10
2019-06-07T03:34:15.933Z,7.67
2019-06-07T03:36:48.205Z,7.30
2019-06-07T03:39:20.272Z,6.40
2019-06-07T03:42:05.812Z,5.85
2019-06-07T03:44:28.640Z,5.95
2019-06-07T03:46:59.858Z,5.67
2019-06-07T03:49:37.561Z,5.80
2019-06-07T03:52:05.424Z,5.37
2019-06-07T03:54:39.779Z,5.30
2019-06-07T03:57:11.206Z,5.65
2019-06-07T03:59:43.581Z,4.53
2019-06-07T04:02:15.951Z,5.12
2019-06-07T04:04:47.915Z,3.90
2019-06-07T04:07:20.089Z,4.47
2019-06-07T04:09:52.465Z,4.45
2019-06-07T04:12:24.429Z,4.83
2019-06-07T04:14:56.503Z,4.53
2019-06-07T04:17:32.059Z,3.50
2019-06-07T04:20:03.044Z,3.67
2019-06-07T04:22:37.575Z,3.47
2019-06-07T04:25:09.455Z,3.95
2019-06-07T04:27:41.563Z,3.33
2019-06-07T04:30:13.517Z,3.80
2019-06-07T04:32:45.375Z,3.27
2019-06-07T04:35:17.545Z,2.98
2019-06-07T04:37:49.413Z,2.98
2019-06-07T04:40:21.574Z,3.17
2019-06-07T04:42:53.640Z,3.67
2019-06-07T04:45:40.266Z,3.52
2019-06-07T04:47:59.853Z,3.72
2019-06-07T04:50:35.356Z,4.70
2019-06-07T04:53:07.138Z,4.53
2019-06-07T04:55:41.608Z,4.03
2019-06-07T04:58:13.013Z,3.75
2019-06-07T05:00:52.768Z,3.50
2019-06-07T05:03:19.096Z,4.25
2019-06-07T05:05:51.366Z,3.85
2019-06-07T05:08:28.480Z,3.87
2019-06-07T05:10:57.653Z,4.20
2019-06-07T05:13:31.507Z,3.90
2019-06-07T05:16:03.530Z,3.77
2019-06-07T05:18:39.700Z,3.72
2019-06-07T05:21:09.513Z,3.20
2019-06-07T05:24:05.603Z,3.90
2019-06-07T05:26:15.081Z,3.40
2019-06-07T05:28:47.053Z,2.72
2019-06-07T05:31:19.218Z,3.00
2019-06-07T05:33:51.189Z,3.37
2019-06-07T05:36:23.560Z,2.90
2019-06-07T05:38:55.627Z,3.10
2019-06-07T05:41:27.698Z,3.17
2019-06-07T05:44:12.233Z,2.77
2019-06-07T05:46:38.633Z,2.90
2019-06-07T05:49:08.307Z,2.67
2019-06-07T05:51:44.395Z,2.72
2019-06-07T05:54:13.983Z,2.65
2019-06-07T05:56:46.144Z,2.20
2019-06-07T05:59:18.325Z,2.47
2019-06-07T06:02:01.946Z,2.55
2019-06-07T06:04:23.781Z,2.37
2019-06-07T06:06:55.745Z,3.12
2019-06-07T06:09:28.121Z,3.20
2019-06-07T06:12:02.426Z,2.30
2019-06-07T06:14:35.379Z,2.40
2019-06-07T06:17:07.086Z,2.80
2019-06-07T06:19:40.665Z,3.08
2019-06-07T06:22:13.161Z,2.67
2019-06-07T06:25:17.692Z,2.98
2019-06-07T06:28:02.703Z,2.65
2019-06-07T06:29:52.576Z,2.00
2019-06-07T06:32:41.600Z,3.27
2019-06-07T06:34:58.314Z,3.00
2019-06-07T06:37:32.977Z,2.52
2019-06-07T06:40:06.273Z,1.82
2019-06-07T06:42:39.635Z,2.02
2019-06-07T06:45:11.816Z,2.10
2019-06-07T06:47:47.199Z,2.17
2019-06-07T06:50:17.273Z,1.98
2019-06-07T06:52:54.220Z,2.08
2019-06-07T06:55:23.144Z,2.17
2019-06-07T06:57:55.524Z,2.45
2019-06-07T07:00:50.346Z,1.65
2019-06-07T07:03:56.426Z,1.95
2019-06-07T07:05:53.316Z,1.70
2019-06-07T07:08:23.554Z,2.03
2019-06-07T07:10:55.855Z,1.72
2019-06-07T07:13:28.093Z,1.42
2019-06-07T07:16:00.362Z,1.92
2019-06-07T07:18:33.008Z,1.98
2019-06-07T07:21:05.723Z,1.72
2019-06-07T07:23:38.230Z,2.35
2019-06-07T07:26:10.597Z,2.08
2019-06-07T07:28:45.391Z,2.42
2019-06-07T07:31:17.970Z,1.70
2019-06-07T07:36:38.926Z,1.40
2019-06-07T07:39:04.502Z,1.60
2019-06-07T07:41:30.546Z,1.92
2019-06-07T07:44:07.145Z,1.50
2019-06-07T07:46:36.417Z,2.07
2019-06-07T07:49:08.484Z,2.05
2019-06-07T07:51:40.652Z,1.80
2019-06-07T07:54:12.874Z,2.45
2019-06-07T07:56:45.747Z,1.47
2019-06-07T07:59:18.799Z,2.05
2019-06-07T08:01:53.096Z,2.27
2019-06-07T08:05:12.353Z,2.12
2019-06-07T08:06:59.189Z,1.80
2019-06-07T08:09:31.267Z,1.57
2019-06-07T08:12:03.428Z,2.17
2019-06-07T08:14:35.726Z,1.60
2019-06-07T08:17:07.767Z,2.05
2019-06-07T08:19:39.744Z,1.70
2019-06-07T08:22:12.009Z,1.80
2019-06-07T08:24:44.399Z,1.20
2019-06-07T08:27:26.072Z,1.70
2019-06-07T08:30:10.189Z,1.55
2019-06-07T08:32:28.067Z,2.15
2019-06-07T08:35:06.057Z,1.80
2019-06-07T08:38:14.280Z,1.50
2019-06-07T08:40:08.040Z,1.60
2019-06-07T08:42:59.909Z,1.50
2019-06-07T08:45:14.532Z,2.00
2019-06-07T08:47:46.813Z,1.62
2019-06-07T08:50:20.570Z,1.50
2019-06-07T08:52:56.325Z,1.97
2019-06-07T08:55:26.285Z,1.40
2019-06-07T08:58:04.193Z,1.57
2019-06-07T09:00:48.111Z,1.80
2019-06-07T09:03:07.420Z,1.50
2019-06-07T09:05:39.586Z,1.27
2019-06-07T09:08:29.207Z,1.57
2019-06-07T09:10:45.351Z,1.80
2019-06-07T09:13:17.421Z,1.40
2019-06-07T09:15:49.276Z,1.40
2019-06-07T09:18:40.856Z,1.60
2019-06-07T09:20:55.641Z,1.50
2019-06-07T09:23:28.488Z,1.70
2019-06-07T09:26:15.340Z,2.05
2019-06-07T09:28:34.644Z,1.77
2019-06-07T09:31:10.391Z,2.08
2019-06-07T09:33:40.412Z,1.90
2019-06-07T09:36:13.344Z,1.95
2019-06-07T09:38:45.682Z,1.80
2019-06-07T09:41:17.851Z,1.72
2019-06-07T09:44:21.392Z,1.62
2019-06-07T09:46:24.044Z,1.42
2019-06-07T09:49:26.338Z,2.72
2019-06-07T09:51:29.405Z,1.37
2019-06-07T09:54:06.874Z,1.60
2019-06-07T09:56:35.183Z,1.50
2019-06-07T09:59:12.307Z,1.92
2019-06-07T10:01:40.550Z,1.92
2019-06-07T10:04:28.550Z,1.53
2019-06-07T10:11:58.089Z,1.72
2019-06-07T10:14:30.423Z,1.40
2019-06-07T10:17:03.291Z,1.62
2019-06-07T10:19:35.588Z,1.75
2019-06-07T10:22:07.888Z,1.80
2019-06-07T10:24:39.837Z,1.82
2019-06-07T10:27:11.592Z,1.77
2019-06-07T10:29:43.860Z,1.55
2019-06-07T10:32:15.927Z,1.45
2019-06-07T10:34:47.796Z,1.90
2019-06-07T10:37:19.769Z,1.40
2019-06-07T10:39:51.933Z,2.30
2019-06-07T10:42:24.623Z,1.80
2019-06-07T10:44:57.197Z,1.75
2019-06-07T10:47:28.958Z,1.95
2019-06-07T10:50:03.785Z,2.72
2019-06-07T10:52:36.730Z,1.70
2019-06-07T10:55:08.679Z,2.22
2019-06-07T10:57:42.455Z,1.70
2019-06-07T11:00:14.519Z,2.25
2019-06-07T11:02:46.387Z,1.60
2019-06-07T11:05:19.292Z,2.47
2019-06-07T11:07:51.715Z,2.00
2019-06-07T11:10:23.721Z,2.35
2019-06-07T11:12:55.994Z,2.50
2019-06-07T11:15:28.171Z,1.90
2019-06-07T11:18:00.448Z,2.15
2019-06-07T11:20:32.403Z,1.82
2019-06-07T11:23:04.270Z,2.20
2019-06-07T11:25:36.233Z,2.40
2019-06-07T11:28:08.609Z,2.27
2019-06-07T11:30:40.467Z,2.22
2019-06-07T11:33:14.830Z,2.08
2019-06-07T11:35:46.853Z,1.67
2019-06-07T11:38:20.044Z,1.80
2019-06-07T11:40:53.979Z,2.50
2019-06-07T11:43:26.734Z,2.30
2019-06-07T11:45:58.902Z,2.10
2019-06-07T11:48:31.640Z,2.30
2019-06-07T11:51:06.549Z,1.90
2019-06-07T11:53:38.482Z,1.82
2019-06-07T11:56:11.853Z,2.22
2019-06-07T11:58:43.830Z,2.00
2019-06-07T12:01:17.136Z,2.20
2019-06-07T12:03:49.601Z,2.15
2019-06-07T12:06:21.775Z,2.10
2019-06-07T12:08:54.506Z,2.02
2019-06-07T12:11:26.523Z,2.12
2019-06-07T12:13:58.798Z,1.85
2019-06-07T12:16:30.762Z,1.95
2019-06-07T12:19:03.491Z,2.25
2019-06-07T12:21:35.809Z,2.52
2019-06-07T12:24:07.619Z,2.40
2019-06-07T12:26:39.853Z,2.10
2019-06-07T12:29:12.786Z,1.85
2019-06-07T12:31:44.703Z,2.40
2019-06-07T12:34:17.594Z,2.60
2019-06-07T12:36:49.757Z,2.98
2019-06-07T12:39:22.263Z,2.12
2019-06-07T12:41:54.613Z,2.65
2019-06-07T12:44:26.943Z,3.22
2019-06-07T12:46:59.379Z,2.50
2019-06-07T12:49:31.635Z,2.80
2019-06-07T12:52:03.489Z,2.55
2019-06-07T12:54:35.464Z,2.65
2019-06-07T12:57:07.741Z,2.45
2019-06-07T12:59:40.110Z,2.65
2019-06-07T13:02:12.379Z,2.30
2019-06-07T13:04:44.551Z,2.52
2019-06-07T13:07:21.966Z,2.30
2019-06-07T13:09:54.123Z,2.83
2019-06-07T13:12:26.391Z,2.70
2019-06-07T13:14:58.671Z,3.60
2019-06-07T13:17:30.839Z,2.60
2019-06-07T13:20:02.638Z,2.52
2019-06-07T13:22:35.004Z,2.75
2019-06-07T13:25:06.931Z,3.00
2019-06-07T13:27:38.900Z,3.98
2019-06-07T13:30:12.298Z,3.37
2019-06-07T13:32:44.261Z,4.00
2019-06-07T13:35:18.169Z,3.10
2019-06-07T13:37:51.174Z,2.42
2019-06-07T13:40:25.123Z,2.52
2019-06-07T13:42:57.665Z,2.77
2019-06-07T13:45:29.832Z,2.75
2019-06-07T13:48:02.311Z,2.80
2019-06-07T13:50:34.394Z,3.12
2019-06-07T13:53:06.760Z,2.75
2019-06-07T13:55:39.131Z,2.83
2019-06-07T13:58:10.993Z,3.08
2019-06-07T14:00:44.499Z,3.05
2019-06-07T14:03:20.308Z,2.87
2019-06-07T14:05:50.191Z,3.17
2019-06-07T14:08:23.378Z,2.62
2019-06-07T14:10:55.566Z,3.22
2019-06-07T14:13:28.156Z,3.25
2019-06-07T14:16:00.378Z,2.60
2019-06-07T14:18:32.445Z,2.55
2019-06-07T14:21:04.817Z,3.17
2019-06-07T14:23:48.367Z,2.83
2019-06-07T14:26:10.180Z,2.75
2019-06-07T14:28:42.252Z,3.33
2019-06-07T14:31:14.219Z,2.75
2019-06-07T14:33:47.115Z,8.05
2019-06-07T14:36:20.913Z,5.10
2019-06-07T14:38:53.129Z,3.95
2019-06-07T14:41:25.269Z,9.58
2019-06-07T14:43:59.520Z,4.28
2019-06-07T14:46:32.263Z,2.80
2019-06-07T14:49:05.146Z,3.05
2019-06-07T14:51:37.322Z,3.15
2019-06-07T14:54:09.487Z,3.10
2019-06-07T14:56:41.552Z,3.35
2019-06-07T14:59:15.585Z,2.90
2019-06-07T15:01:48.685Z,3.98
2019-06-07T15:04:26.540Z,4.05
2019-06-07T15:07:00.265Z,4.35
2019-06-07T15:09:33.068Z,3.62
2019-06-07T15:12:05.212Z,3.27
2019-06-07T15:14:37.615Z,2.40
2019-06-07T15:17:09.732Z,3.80
2019-06-07T15:19:41.714Z,2.92
2019-06-07T15:22:13.475Z,2.95
2019-06-07T15:24:45.652Z,2.80
2019-06-07T15:27:18.038Z,3.52
2019-06-07T15:29:49.988Z,2.85
2019-06-07T15:32:22.358Z,3.92
2019-06-07T15:34:54.550Z,3.47
2019-06-07T15:37:26.489Z,3.08
2019-06-07T15:39:58.660Z,3.50
2019-06-07T15:42:42.948Z,3.35
2019-06-07T15:45:07.333Z,3.70
2019-06-07T15:47:40.617Z,2.42
2019-06-07T15:50:12.868Z,3.42
2019-06-07T15:52:45.290Z,4.03
2019-06-07T15:55:18.542Z,3.60
2019-06-07T15:57:51.797Z,3.20
2019-06-07T16:00:24.807Z,4.08
2019-06-07T16:02:57.560Z,4.15
2019-06-07T16:05:31.869Z,3.30
2019-06-07T16:08:04.636Z,3.50
2019-06-07T16:10:38.936Z,5.60
2019-06-07T16:13:12.793Z,6.97
2019-06-07T16:15:45.047Z,6.60
2019-06-07T16:18:17.355Z,5.22
2019-06-07T16:20:49.211Z,4.53
2019-06-07T16:23:21.799Z,3.72
2019-06-07T16:25:53.750Z,3.17
2019-06-07T16:28:25.912Z,3.35
2019-06-07T16:30:58.087Z,4.53
2019-06-07T16:33:30.788Z,5.55
2019-06-07T16:36:05.076Z,4.85
2019-06-07T16:38:40.167Z,4.55
2019-06-07T16:41:15.783Z,4.20
2019-06-07T16:43:52.892Z,4.37
2019-06-07T16:46:29.971Z,4.83
2019-06-07T16:49:05.749Z,4.97
2019-06-07T16:51:41.313Z,5.33
2019-06-07T16:54:15.085Z,5.00
2019-06-07T16:56:51.222Z,5.00
2019-06-07T16:59:24.018Z,5.15
2019-06-07T17:01:56.846Z,5.15
2019-06-07T17:04:28.803Z,5.42
2019-06-07T17:07:00.976Z,6.92
2019-06-07T17:09:33.961Z,5.80
2019-06-07T17:12:06.339Z,6.55
2019-06-07T17:14:38.427Z,7.28
2019-06-07T17:17:10.743Z,6.62
2019-06-07T17:19:42.897Z,6.22
2019-06-07T17:22:15.308Z,6.80
2019-06-07T17:24:47.655Z,6.55
2019-06-07T17:27:19.755Z,6.42
2019-06-07T17:29:52.012Z,6.37
2019-06-07T17:32:24.386Z,7.08
2019-06-07T17:34:56.558Z,7.45
2019-06-07T17:37:30.219Z,6.90
2019-06-07T17:40:02.413Z,8.28
2019-06-07T17:42:35.107Z,7.83
2019-06-07T17:45:08.997Z,7.58
2019-06-07T17:47:41.806Z,7.15
2019-06-07T17:50:14.372Z,7.95
2019-06-07T17:52:47.941Z,7.37
2019-06-07T17:55:20.136Z,6.33
2019-06-07T17:57:52.693Z,6.55
2019-06-07T18:00:28.797Z,6.97
2019-06-07T18:03:00.330Z,9.08
2019-06-07T18:05:32.390Z,8.33
2019-06-07T18:08:07.220Z,8.00
2019-06-07T18:10:41.129Z,7.30
2019-06-07T18:13:12.905Z,8.45
2019-06-07T18:15:51.644Z,18.70
2019-06-07T18:18:20.999Z,10.98
2019-06-07T18:20:55.653Z,10.60
2019-06-07T18:26:00.676Z,8.03
2019-06-07T18:28:35.036Z,9.08
2019-06-07T18:31:06.870Z,8.33
2019-06-07T18:33:39.604Z,7.70
2019-06-07T18:36:11.920Z,6.97
2019-06-07T18:38:44.190Z,7.22
2019-06-07T18:41:16.458Z,6.58
2019-06-07T18:43:49.170Z,6.78
2019-06-07T18:46:21.312Z,6.87
2019-06-07T18:48:54.817Z,5.95
2019-06-07T18:51:28.829Z,5.53
2019-06-07T18:54:03.261Z,6.80
2019-06-07T18:56:39.206Z,7.50
2019-06-07T18:59:14.725Z,5.55
2019-06-07T19:01:49.989Z,6.20
2019-06-07T19:04:23.781Z,5.35
2019-06-07T19:06:56.410Z,6.67
2019-06-07T19:09:28.557Z,6.33
2019-06-07T19:12:00.683Z,7.05
2019-06-07T19:14:37.085Z,6.70
2019-06-07T19:17:07.074Z,7.47
2019-06-07T19:19:39.292Z,7.35
2019-06-07T19:22:11.816Z,7.30
2019-06-07T19:24:45.083Z,7.40
2019-06-07T19:27:17.279Z,6.47
2019-06-07T19:29:50.783Z,7.55
2019-06-07T19:32:23.199Z,6.00
2019-06-07T19:34:55.322Z,7.40
2019-06-07T19:37:27.826Z,7.22
2019-06-07T19:40:00.274Z,7.35
2019-06-07T19:42:32.680Z,8.53
2019-06-07T19:45:28.843Z,9.78
2019-06-07T19:47:40.345Z,8.88
2019-06-07T19:50:12.506Z,8.60
2019-06-07T19:52:44.469Z,10.08
2019-06-07T19:55:16.963Z,9.05
2019-06-07T19:57:50.187Z,9.35
2019-06-07T20:00:22.201Z,10.32
2019-06-07T20:02:55.741Z,10.53
2019-06-07T20:05:27.665Z,10.03
2019-06-07T20:08:00.604Z,10.85
2019-06-07T20:10:32.710Z,10.23
2019-06-07T20:13:05.350Z,9.23
2019-06-07T20:15:37.469Z,8.00
2019-06-07T20:18:09.956Z,8.53
2019-06-07T20:20:42.129Z,8.60
2019-06-07T20:23:14.563Z,9.13
2019-06-07T20:25:46.570Z,8.35
2019-06-07T20:28:18.756Z,8.38
2019-06-07T20:30:52.284Z,7.17
2019-06-07T20:33:24.226Z,7.35
2019-06-07T20:35:56.672Z,5.95
2019-06-07T20:38:28.669Z,8.08
2019-06-07T20:41:01.153Z,7.60
2019-06-07T20:43:34.708Z,6.08
2019-06-07T20:46:08.180Z,8.78
2019-06-07T20:48:40.305Z,6.15
2019-06-07T20:51:12.165Z,6.72
2019-06-07T20:53:44.536Z,7.42
2019-06-07T20:56:17.114Z,7.12
2019-06-07T20:58:49.489Z,7.92
2019-06-07T21:01:21.864Z,8.05
2019-06-07T21:03:54.354Z,8.35
2019-06-07T21:06:26.310Z,8.58
2019-06-07T21:08:59.340Z,8.83
2019-06-07T21:11:31.368Z,8.30
2019-06-07T21:14:06.135Z,8.08
2019-06-07T21:16:38.470Z,7.62
2019-06-07T21:19:14.414Z,7.22
2019-06-07T21:21:48.880Z,6.75
2019-06-07T21:24:22.040Z,7.45
2019-06-07T21:26:57.224Z,6.90
2019-06-07T21:29:31.396Z,6.58
2019-06-07T21:32:03.806Z,5.67
2019-06-07T21:34:36.025Z,5.40
2019-06-07T21:37:09.996Z,4.45
2019-06-07T21:39:42.337Z,5.08
2019-06-07T21:42:14.268Z,4.35
2019-06-07T21:44:46.634Z,5.55
2019-06-07T21:47:19.156Z,4.58
2019-06-07T21:49:51.235Z,4.50
2019-06-07T21:52:26.449Z,5.45
2019-06-07T21:54:58.888Z,5.17
2019-06-07T21:57:31.177Z,5.47
2019-06-07T22:00:11.488Z,5.92
2019-06-07T22:02:47.683Z,6.47
2019-06-07T22:05:19.734Z,6.37
2019-06-07T22:07:51.905Z,6.05
2019-06-07T22:10:24.171Z,6.65
2019-06-07T22:12:55.930Z,7.75
2019-06-07T22:15:34.050Z,5.95
2019-06-07T22:18:01.598Z,5.20
2019-06-07T22:20:33.972Z,5.47
2019-06-07T22:23:06.537Z,5.72
2019-06-07T22:25:38.416Z,5.00
2019-06-07T22:28:10.726Z,5.70
2019-06-07T22:30:42.762Z,5.42
2019-06-07T22:33:15.130Z,5.35
2019-06-07T22:35:47.110Z,4.95
2019-06-07T22:38:19.180Z,4.78
2019-06-07T22:40:51.560Z,5.40
2019-06-07T22:43:24.138Z,5.17
2019-06-07T22:45:55.994Z,5.20
2019-06-07T22:48:28.265Z,4.30
2019-06-07T22:51:02.282Z,4.60
2019-06-07T22:53:36.300Z,4.22
2019-06-07T22:56:10.104Z,4.87
2019-06-07T22:58:41.873Z,4.12
2019-06-07T23:01:14.564Z,4.30
2019-06-07T23:03:47.444Z,4.30
2019-06-07T23:06:19.515Z,3.65
2019-06-07T23:08:51.894Z,3.92
2019-06-07T23:11:23.873Z,5.20
2019-06-07T23:13:56.030Z,3.80
2019-06-07T23:16:28.105Z,4.50
2019-06-07T23:19:00.080Z,4.45
2019-06-07T23:21:32.140Z,4.00
2019-06-07T23:24:04.303Z,3.42
2019-06-07T23:26:36.069Z,3.95
2019-06-07T23:29:08.132Z,4.17
2019-06-07T23:31:40.090Z,3.92
2019-06-07T23:34:13.010Z,3.67
2019-06-07T23:36:44.961Z,3.70
2019-06-07T23:39:17.224Z,3.42
2019-06-07T23:41:49.092Z,4.05
2019-06-07T23:44:21.485Z,4.17
2019-06-07T23:46:53.442Z,3.67
2019-06-07T23:49:25.818Z,4.45
2019-06-07T23:51:58.293Z,3.75
2019-06-07T23:54:30.457Z,3.27
2019-06-07T23:57:02.733Z,3.92
2019-06-07T23:59:35.107Z,4.05
